オウル空港の過去48時間の天気

オウル空港 (Oulu)

現在時刻: 4/21 18:15 EEST (4/21 15:15 UTC) 以下の時間は現地時間です。

過去48時間のMETAR気象情報
時間 風向 風速(m/s) 視程 気温(℃) 湿度(%) 気圧(hPa) 天気現象
21 17:50 西南西 6 10km以上 7 66 1018
21 17:20 西南西 7 10km以上 7 66 1019
21 16:50 西南西 8 10km以上 9 50 1018
21 16:20 西南西 8 10km以上 9 53 1018
21 15:50 西南西 8 10km以上 9 53 1019
21 15:20 西南西 8 10km以上 9 57 1019
21 14:50 西南西 8 10km以上 9 57 1019
21 14:20 西南西 8 10km以上 9 57 1019
21 13:50 西南西 7 10km以上 10 54 1019
21 13:20 西南西 8 10km以上 10 54 1019
21 12:50 南西 7 10km以上 10 50 1019
21 12:20 西南西 7 10km以上 10 50 1019
21 11:50 西南西 5 10km以上 10 50 1019
21 11:20 南西 5 10km以上 10 54 1019
21 10:50 南西 5 10km以上 10 54 1019
21 10:20 南西 5 10km以上 9 57 1019
21 09:50 南南西 5 10km以上 9 57 1019
21 09:20 南南西 4 10km以上 8 66 1019
21 08:50 5 10km以上 8 66 1019
21 08:20 南南西 4 10km以上 7 70 1020
21 07:50 南南西 4 10km以上 6 76 1020
21 07:20 南南西 4 10km以上 6 81 1020
21 06:50 5 10km以上 5 87 1020
21 06:20 4 10km以上 5 87 1020
21 05:50 4 10km以上 5 81 1020
21 05:20 4 10km以上 5 81 1021
21 04:50 3 10km以上 5 87 1021
21 04:20 4 10km以上 5 87 1021
21 03:50 3 10km以上 5 87 1021
21 03:20 3 10km以上 4 87 1021
21 02:50 3 10km以上 4 87 1022
21 02:20 4 10km以上 5 81 1022
21 01:50 3 10km以上 5 81 1023
21 01:20 2 10km以上 5 81 1023
21 00:50 3 10km以上 5 81 1023
21 00:20 2 10km以上 4 87 1024
20 23:50 西 3 10km以上 5 81 1024
20 23:20 南西 2 10km以上 6 81 1024
20 22:50 2 10km以上 6 81 1024
20 22:20 2 10km以上 4 87 1024
20 21:50 南南東 1 10km以上 5 87 1024
20 21:20 不定 1 10km以上 6 81 1024
20 20:50 不定 1 10km以上 7 81 1025
20 20:20 南東 2 10km以上 9 71 1025
20 19:20 1 10km以上 10 66 1025
20 18:50 不定 1 10km以上 10 66 1026
20 18:20 不定 1 10km以上 9 71 1026
20 17:50 北西 2 10km以上 9 71 1026
20 17:20 北西 3 10km以上 9 71 1027
20 16:50 西北西 4 10km以上 8 76 1027
20 16:20 西北西 4 10km以上 8 81 1027
20 15:50 西北西 2 10km以上 10 71 1027
20 15:20 西北西 5 10km以上 9 76 1028
20 14:50 西北西 3 10km以上 11 71 1028
20 14:20 不定 2 10km以上 11 67 1028
20 13:50 不定 1 10km以上 11 67 1028
20 13:20 不定 1 10km以上 10 71 1028
20 12:50 2 10km以上 10 71 1028
20 12:20 南南東 2 10km以上 10 71 1028
20 11:50 南南西 3 10km以上 9 71 1029
20 11:20 3 10km以上 8 71 1029
20 10:50 2 10km以上 6 81 1029
20 10:20 2 10km以上 6 76 1029
20 09:50 2 10km以上 5 81 1029
20 09:20 2 10km以上 4 81 1029
20 08:50 不定 1 10km以上 4 81 1029
20 08:20 南南東 2 10km以上 3 87 1029
20 07:50 1 10km以上 2 87 1029
20 07:20 南南東 2 10km以上 2 87 1029
20 06:50 南東 2 10km以上 1 93 1029
20 06:20 東南東 2 10km以上 1 93 1029
20 05:50 南南東 1 10km以上 1 86 1029
20 05:20 南東 2 10km以上 1 86 1030
20 04:50 不定 1 10km以上 1 86 1030
20 04:20 不定 1 10km以上 1 93 1030
20 03:50 不定 1 10km以上 1 93 1030
20 03:20 南東 1 10km以上 -1 100 1030
20 02:50 南南東 1 10km以上 0 93 1030
20 02:20 南南東 2 10km以上 -1 93 1030
20 01:50 南南東 1 10km以上 0 86 1031
20 01:20 1 10km以上 0 93 1031
20 00:50 不定 1 10km以上 0 93 1031
20 00:20 西南西 1 10km以上 1 93 1031
19 23:50 西 2 10km以上 1 93 1031
19 23:20 西 2 10km以上 1 86 1031
19 22:50 不定 1 10km以上 1 86 1031
19 22:20 西 1 10km以上 1 86 1031
19 21:50 不定 1 10km以上 2 87 1031
19 21:20 西 2 10km以上 3 81 1031
19 20:50 西 3 10km以上 3 81 1031
19 20:20 西 3 10km以上 2 87 1031
19 19:50 西北西 3 10km以上 3 81 1031
19 19:20 西北西 3 10km以上 4 75 1031
19 18:50 西 4 10km以上 6 61 1031
19 18:20 西北西 3 10km以上 6 65 1031
EFOU 211450Z AUTO 24011KT 9999 FEW047/// BKN056/// OVC067/// 07/01 Q1018
EFOU 211420Z AUTO 25014KT 9999 BKN046/// BKN055/// 07/01 Q1019
EFOU 211350Z AUTO 24016KT 9999 FEW057/// SCT068/// BKN080/// 09/M01 Q1018
EFOU 211320Z AUTO 25016G26KT 9999 BKN067/// BKN076/// 09/M00 Q1018
EFOU 211250Z AUTO 25015G26KT 9999 SCT079/// 09/00 Q1019
EFOU 211220Z AUTO 25016KT 9999 BKN083/// BKN095/// 09/01 Q1019
EFOU 211150Z AUTO 24016KT 210V270 9999 OVC079/// 09/01 Q1019
EFOU 211120Z AUTO 24016KT 9999 OVC080/// 09/01 Q1019
EFOU 211050Z AUTO 24014KT 9999 OVC081/// 10/01 Q1019
EFOU 211020Z AUTO 24015KT 210V270 9999 OVC081/// 10/01 Q1019
EFOU 210950Z AUTO 23014KT 9999 OVC079/// 10/00 Q1019
EFOU 210920Z AUTO 24014KT 9999 OVC079/// 10/00 Q1019
EFOU 210850Z AUTO 24010KT 9999 OVC088/// 10/00 Q1019
EFOU 210820Z AUTO 23010KT 9999 OVC094/// 10/01 Q1019
EFOU 210750Z AUTO 22010KT 9999 OVC097/// 10/01 Q1019
EFOU 210720Z AUTO 22009KT 190V250 9999 BKN098/// 09/01 Q1019
EFOU 210650Z AUTO 21009KT 180V240 9999 BKN100/// 09/01 Q1019
EFOU 210620Z AUTO 21007KT 9999 OVC100/// 08/02 Q1019
EFOU 210550Z AUTO 19009KT 9999 SCT100/// 08/02 Q1019
EFOU 210520Z AUTO 20008KT CAVOK 07/02 Q1020
EFOU 210450Z AUTO 20008KT CAVOK 06/02 Q1020
EFOU 210420Z AUTO 20008KT CAVOK 06/03 Q1020
EFOU 210350Z AUTO 19009KT CAVOK 05/03 Q1020
EFOU 210320Z AUTO 19007KT CAVOK 05/03 Q1020
EFOU 210250Z AUTO 18008KT CAVOK 05/02 Q1020
EFOU 210220Z AUTO 19007KT CAVOK 05/02 Q1021
EFOU 210150Z AUTO 19006KT CAVOK 05/03 Q1021
EFOU 210120Z AUTO 18007KT CAVOK 05/03 Q1021
EFOU 210050Z AUTO 18006KT CAVOK 05/03 Q1021
EFOU 210020Z AUTO 18005KT 9999 SCT090/// 04/02 Q1021
EFOU 202350Z AUTO 19006KT 9999 SCT096/// 04/02 Q1022
EFOU 202320Z AUTO 17007KT 9999 BKN098/// 05/02 Q1022
EFOU 202250Z AUTO 18005KT 9999 // OVC099 05/02 Q1023
EFOU 202220Z AUTO 18004KT 9999 BKN100/// 05/02 Q1023
EFOU 202150Z AUTO 19005KT CAVOK 05/02 Q1023
EFOU 202120Z AUTO 19004KT 160V220 CAVOK 04/02 Q1024
EFOU 202050Z AUTO 26006KT CAVOK 05/02 Q1024
EFOU 202020Z AUTO 23004KT CAVOK 06/03 Q1024
EFOU 201950Z AUTO 19004KT CAVOK 06/03 Q1024
EFOU 201920Z AUTO 18004KT CAVOK 04/02 Q1024
EFOU 201850Z AUTO 16002KT CAVOK 05/03 Q1024
EFOU 201820Z AUTO VRB02KT CAVOK 06/03 Q1024
EFOU 201750Z AUTO VRB02KT CAVOK 07/04 Q1025
EFOU 201720Z AUTO 14003KT CAVOK 09/04 Q1025
EFOU 201620Z AUTO 09002KT CAVOK 10/04 Q1025
EFOU 201550Z AUTO VRB02KT CAVOK 10/04 Q1026
EFOU 201520Z AUTO VRB02KT CAVOK 09/04 Q1026
EFOU 201450Z AUTO 32004KT 290V020 CAVOK 09/04 Q1026
EFOU 201420Z AUTO 32005KT CAVOK 09/04 Q1027
EFOU 201350Z AUTO 29008KT CAVOK 08/04 Q1027
EFOU 201320Z AUTO 29007KT CAVOK 08/05 Q1027
EFOU 201250Z AUTO 30004KT 270V340 9999 FEW074/// 10/05 Q1027
EFOU 201220Z AUTO 30009KT 9999 BKN073/// 09/05 Q1028
EFOU 201150Z AUTO 30005KT 270V340 9999 BKN071/// 11/06 Q1028
EFOU 201120Z AUTO VRB03KT 9999 FEW067/// 11/05 Q1028
EFOU 201050Z AUTO VRB02KT 9999 FEW071/// 11/05 Q1028
EFOU 201020Z AUTO VRB02KT 9999 OVC072/// 10/05 Q1028
EFOU 200950Z AUTO 19004KT 160V220 9999 OVC072/// 10/05 Q1028
EFOU 200920Z AUTO 16004KT 110V190 9999 FEW074/// 10/05 Q1028
EFOU 200850Z AUTO 20005KT 170V230 CAVOK 09/04 Q1029
EFOU 200820Z AUTO 18005KT 150V210 CAVOK 08/03 Q1029
EFOU 200750Z AUTO 17004KT 9999 FEW062/// 06/03 Q1029
EFOU 200720Z AUTO 18003KT 140V210 9999 FEW052/// OVC060/// 06/02 Q1029
EFOU 200650Z AUTO 17004KT 9999 BKN050/// OVC058/// 05/02 Q1029
EFOU 200620Z AUTO 17003KT 140V210 9999 FEW006/// OVC054/// 04/01 Q1029
EFOU 200550Z AUTO VRB02KT 9999 FEW006/// SCT010/// OVC057/// 04/01 Q1029
EFOU 200520Z AUTO 16003KT 9999 FEW037/// SCT047/// OVC061/// 03/01 Q1029
EFOU 200450Z AUTO 19002KT 9999 SCT038/// OVC063/// 02/00 Q1029
EFOU 200420Z AUTO 16004KT 9999 BKN045/// OVC063/// 02/00 Q1029
EFOU 200350Z AUTO 14004KT 9999 BKN047/// OVC065/// 01/M00 Q1029
EFOU 200320Z AUTO 12003KT 9999 BKN046/// OVC054/// 01/M00 Q1029
EFOU 200250Z AUTO 15002KT 9999 OVC045/// 01/M01 Q1029
EFOU 200220Z AUTO 14003KT 9999 OVC046/// 01/M01 Q1030
EFOU 200150Z AUTO VRB02KT 9999 FEW035/// OVC048/// 01/M01 Q1030
EFOU 200120Z AUTO VRB02KT 9999 OVC036/// 01/M00 Q1030
EFOU 200050Z AUTO VRB02KT 9999 OVC038/// 01/M00 Q1030
EFOU 200020Z AUTO 14002KT 9999 SCT039/// BKN055/// M01/M01 Q1030
EFOU 192350Z AUTO 16002KT 9999 FEW041/// M00/M01 Q1030
EFOU 192320Z AUTO 15003KT CAVOK M01/M02 Q1030
EFOU 192250Z AUTO 16002KT CAVOK M00/M02 Q1031
EFOU 192220Z AUTO 19002KT CAVOK M00/M01 Q1031
EFOU 192150Z AUTO VRB02KT CAVOK 00/M01 Q1031
EFOU 192120Z AUTO 24002KT CAVOK 01/M00 Q1031
EFOU 192050Z AUTO 26003KT CAVOK 01/M00 Q1031
EFOU 192020Z AUTO 28003KT CAVOK 01/M01 Q1031
EFOU 191950Z AUTO VRB02KT CAVOK 01/M01 Q1031
EFOU 191920Z AUTO 26002KT CAVOK 01/M01 Q1031
EFOU 191850Z AUTO VRB02KT CAVOK 02/M00 Q1031
EFOU 191820Z AUTO 28004KT CAVOK 03/M00 Q1031
EFOU 191750Z AUTO 28005KT CAVOK 03/M00 Q1031
EFOU 191720Z AUTO 28005KT CAVOK 02/M00 Q1031
EFOU 191650Z AUTO 30006KT CAVOK 03/M00 Q1031
EFOU 191620Z AUTO 29005KT CAVOK 04/M00 Q1031
EFOU 191550Z AUTO 28007KT CAVOK 06/M01 Q1031
EFOU 191520Z AUTO 29005KT CAVOK 06/M00 Q1031